Khon Kaen, Thailand

9:30 PM ICT on July 29, 2014 (GMT +0700)
Khon Kaen (VTUK) Elev 633 ft | 16.46 °N, 102.79 °E | Change Station

Current weather conditions updated 1 hour ago

Mostly Cloudy
Mostly Cloudy
82 °F
Feels Like 90 °F
N
2
Wind Variable Wind from SE

Tomorrow is forecast to be nearly the same temperature as today. Thunderstorms.

Today
High -- | Low -- °F
--% Chance of Precip.
Yesterday
High -- | Low -- °F
Precip. -- in
5:48 AM 6:41 PM
Waxing Crescent, 6% visible
Pressure 29.65 in
Visibility 6.2 miles
Clouds Few 3000 ft
Mostly Cloudy 30000 ft
Heat Index 90 °F
Dew Point 75 °F
Humidity 79%
Rainfall 0.00 in
Snow Depth Not available.
UV 0 out of 12
Pollen Not available.
Air Quality Not available.
Flu Activity Not available.
METAR VTUK 291300Z 14002KT 9999 FEW030 BKN300 28/24 Q1004 A2967 RWY03 INFO O

More Conditions Fewer Conditions

Pressure 29.65 in
Visibility 6.2 miles
Clouds Few 3000 ft
Mostly Cloudy 30000 ft
Heat Index 90 °F
Dew Point 75 °F
Humidity 79%
Rainfall 0.00 in
Snow Depth Not available.
UV 0 out of 12
Pollen Not available.
Air Quality Not available.
Flu Activity Not available.
METAR VTUK 291300Z 14002KT 9999 FEW030 BKN300 28/24 Q1004 A2967 RWY03 INFO O

More Conditions Fewer Conditions

10-Day Weather Forecast

Almanac

Astronomy

Jul. 29, 2014 Rise Set
Actual Time 5:48 AM ICT 6:41 PM ICT
Civil Twilight 5:25 AM ICT 7:04 PM ICT
Nautical Twilight 4:58 AM ICT 7:31 PM ICT
Astronomical Twilight 4:30 AM ICT 7:59 PM ICT
Moon 7:29 AM ICT 8:08 PM ICT
Length of Visible Light 13h 39m
Length of Day
12h 53m
Tomorrow will be 0m 38s shorter.
Waxing Crescent, 6% of the Moon is Illuminated
Today
Waxing Crescent
Aug 3
First Quarter
Aug 10
Full
Aug 17
Last Quarter
Aug 25
New

Yesterday's Extremes

Country Highs Country Lows

Community

WunderPhotos

Upload Photos

1,738,747 photos uploaded!

Nearby

Snow Depth

Not available.

Earthquake Activity

City Distance Mag. Time & Date
No recent earthquake activity has been reported nearby.
Minimum magnitude displayed is 2.5.

Coastal Water Temperatures

Place Temperature
No Stations Reporting

Nearby Weather Stations

There are no personal weather stations in this area.